Saturday, November 01, 2014
12:35 UTC
  |  Log In   |  Register Free
Airport Search:

Orlando Sanford International Airport
(KSFB)

FAA data valid effective September 18, 2014 - November 13, 2014 (unless otherwise noted).

 
 
 
 
 
 
 
 
 
 
 
 
 
 

Current Aviation Weather for Orlando Sanford International Airport (KSFB)

The most recent METAR observation for KSFB was updated at: 1218
METAR Summary (Translated METAR)
KSFB
011153Z 30010KT 10SM CLR 12/07 A2996 RMK AO2 SLP145 T01220072 10150 20122 53031
KORL
011153Z 31009KT 10SM CLR 14/08 A2996 RMK AO2 PK WND 32026/1105 SLP151 T01390078 10172 20139 52029
(14.8 nm SW from KSFB)
KDED
011155Z AUTO 29013G19KT 10SM FEW026 FEW049 12/07 A2997 RMK AO1
(17.6 nm NW from KSFB)
TAF Summary (Translated TAF)
KSFB
011137Z 0112/0212 31014G21KT P6SM SCT035 SCT080 FM011500 30019G26KT P6SM SKC FM020200 32009KT P6SM SKC
  Airport Weather Conditions for KSFB

 Current Weather at SFB
54° F
Fair
Northwest winds at 11.5 mph
SFB NOAA Radar

Pressure: 29.96 in
Humidity: 72%
Wind: Northwest at 11.5 MPH (10 KT)
Dew Point: 45.0°F
Visibility: 10.00 mi


Airport Weather Forecast for KSFB

Translated METAR and TAF for KSFB
Translated METAR for KSFB (1230 UTC 01 November 2014)
found at http://aviationweather.gov/adds/metars/
 
METAR text: KSFB 011153Z 30010KT 10SM CLR 12/07 A2996 RMK AO2 SLP145 T01220072 10150 20122 53031
Conditions at: KSFB (SANFORD/ORLANDO , FL, US) observed 1153 UTC 01 November 2014
Temperature: 12.2°C (54°F)
Dewpoint: 7.2°C (45°F) [RH = 71%]
Pressure (altimeter): 29.96 inches Hg (1014.6 mb)
[Sea-level pressure: 1014.5 mb]
Winds: from the WNW (300 degrees) at 12 MPH (10 knots; 5.2 m/s)
Visibility: 10 or more miles (16+ km)
Ceiling: at least 12,000 feet AGL
Clouds: sky clear below 12,000 feet AGL
Weather: no significant weather observed at this time
Translated TAF for KSFB
Forecast for: KSFB (SANFORD/ORLANDO , FL, US)
TAF Text: KSFB 011137Z 0112/0212 31014G21KT P6SM SCT035 SCT080
Forecast period: 1200 to 1500 UTC 01 November 2014
Forecast type: FROM: standard forecast or significant change
Winds: from the NW (310 degrees) at 16 MPH (14 knots; 7.3 m/s)
gusting to 24 MPH (21 knots; 10.9 m/s)
Visibility: 6 or more miles (10+ km)
Clouds: scattered clouds at 3500 feet AGL
scattered clouds at 8000 feet AGL
Weather: no significant weather forecast for this period
TAF Text: FM011500 30019G26KT P6SM SKC
Forecast period: 1500 UTC 01 November 2014 to 0200 UTC 02 November 2014
Forecast type: FROM: standard forecast or significant change
Winds: from the WNW (300 degrees) at 22 MPH (19 knots; 9.9 m/s)
gusting to 30 MPH (26 knots; 13.5 m/s)
Visibility: 6 or more miles (10+ km)
Clouds: clear skies
Weather: no significant weather forecast for this period
TAF Text: FM020200 32009KT P6SM SKC
Forecast period: 0200 to 1200 UTC 02 November 2014
Forecast type: FROM: standard forecast or significant change
Winds: from the NW (320 degrees) at 10 MPH (9 knots; 4.7 m/s)
Visibility: 6 or more miles (10+ km)
Clouds: clear skies
Weather: no significant weather forecast for this period

Find All Airport Services Find A Hotel Find A Rental Car Find A Golf Course Find A Restaurant $100 Hamburger



FBO's on the Field
FBO Company Facility Photos Services Transportation Aviation Fuel Prices: Prices include tax
Catering Weather Repair Courtesy Rental Type 100LL JetA JetA+ MOGAS 8087
 
StarPort

StarPort logo
Currently rated 3.8 by 7 people
FS:
Last Updated: Oct-28
Login to update fuel prices
SS:
Contact StarPortMore FBO Information
 
Million Air Sanford

Currently rated 3.6 by 3 people
FS:Avfuel
Last Updated: Oct-30
Login to update fuel prices
SS:
Contact Million Air SanfordMore FBO Information
 
Add another FBO Facility Photos Catering Weather Repair Courtesy Rental Type 100LL JetA JetA+ MOGAS 8087
Services Transportation Aviation Fuel Prices: Prices include tax


model-print
model-print
model-print
model-print